Time;durP1;ratioP1;P1;durP2;ratioP2;P2;SDS_P1;SDS_P2;PMS_P1;PMS_P2;Temp;Humidity;BMP_temperature;BMP_pressure;BME280_temperature;BME280_humidity;BME280_pressure;Samples;Min_cycle;Max_cycle;Signal;HPM_P1;HPM_P2
2023/02/24 00:02:28;;;;;;;224.03;214.67;;;6.10;99.90;;;;;;5056961;28;20807;-80
2023/02/24 00:04:55;;;;;;;236.20;227.40;;;6.00;99.90;;;;;;5056298;28;20458;-81
2023/02/24 00:07:21;;;;;;;236.73;227.33;;;6.10;99.90;;;;;;5055974;28;20458;-80
2023/02/24 00:09:49;;;;;;;218.83;210.83;;;6.10;99.90;;;;;;5056315;28;20451;-80
2023/02/24 00:12:19;;;;;;;223.20;213.80;;;6.00;99.90;;;;;;5055958;28;20468;-79
2023/02/24 00:14:46;;;;;;;246.37;236.07;;;6.00;99.90;;;;;;5060225;28;20466;-80
2023/02/24 00:17:14;;;;;;;206.03;198.07;;;6.10;99.90;;;;;;5060156;28;20841;-80
2023/02/24 00:19:40;;;;;;;207.87;199.83;;;6.00;99.90;;;;;;5060904;28;20478;-80
2023/02/24 00:22:08;;;;;;;211.03;202.83;;;6.00;99.90;;;;;;5059930;28;20454;-82
2023/02/24 00:24:36;;;;;;;208.10;199.23;;;6.00;99.90;;;;;;5060099;28;20471;-80
2023/02/24 00:27:06;;;;;;;216.63;208.37;;;6.00;99.90;;;;;;5059719;28;20447;-80
2023/02/24 00:29:36;;;;;;;207.97;199.97;;;6.00;99.90;;;;;;5060292;28;20445;-80
2023/02/24 00:32:05;;;;;;;209.80;201.40;;;6.00;99.90;;;;;;5059900;28;20528;-81
2023/02/24 00:34:35;;;;;;;217.53;209.13;;;6.00;99.90;;;;;;5059801;28;20550;-80
2023/02/24 00:37:02;;;;;;;239.07;228.57;;;6.00;99.90;;;;;;5059749;28;20824;-80
2023/02/24 00:39:32;;;;;;;234.57;225.57;;;5.90;99.90;;;;;;5060108;28;20455;-80
2023/02/24 00:42:04;;;;;;;238.90;228.03;;;5.90;99.90;;;;;;5059737;28;20506;-81
2023/02/24 00:44:33;;;;;;;212.23;203.80;;;5.90;99.90;;;;;;5060158;28;20478;-81
2023/02/24 00:47:01;;;;;;;218.77;210.37;;;5.90;99.90;;;;;;5059542;28;20826;-80
2023/02/24 00:49:28;;;;;;;233.80;224.50;;;5.90;99.90;;;;;;5059695;28;20501;-80
2023/02/24 00:51:55;;;;;;;238.70;228.47;;;5.80;99.90;;;;;;5059751;28;20479;-80
2023/02/24 00:54:26;;;;;;;253.30;243.40;;;5.80;99.90;;;;;;5059388;28;20985;-80
2023/02/24 00:56:53;;;;;;;259.93;247.80;;;5.80;99.90;;;;;;5059650;28;20529;-80
2023/02/24 00:59:22;;;;;;;266.27;253.90;;;5.80;99.90;;;;;;5059466;28;20463;-80
2023/02/24 01:01:51;;;;;;;260.37;249.57;;;5.80;99.90;;;;;;5059795;28;20483;-81
2023/02/24 01:04:20;;;;;;;271.30;260.10;;;5.70;99.90;;;;;;5059577;28;20471;-80
2023/02/24 01:06:49;;;;;;;281.10;269.70;;;5.70;99.90;;;;;;5059603;28;20451;-80
2023/02/24 01:09:18;;;;;;;278.27;266.27;;;5.70;99.90;;;;;;5059639;28;20451;-80
2023/02/24 01:14:45;;;;;;;309.67;297.77;;;5.60;99.90;;;;;;5059270;28;20439;-80
2023/02/24 01:17:17;;;;;;;327.10;314.13;;;5.60;99.90;;;;;;5059022;28;20497;-80
2023/02/24 01:19:44;;;;;;;268.50;258.70;;;5.50;99.90;;;;;;5059046;28;20822;-80
2023/02/24 01:22:14;;;;;;;238.37;228.83;;;5.50;99.90;;;;;;5058967;28;20443;-80
2023/02/24 01:24:42;;;;;;;262.03;250.73;;;5.60;99.90;;;;;;5057921;28;20447;-81
2023/02/24 01:27:11;;;;;;;257.30;247.50;;;5.50;99.90;;;;;;5058789;28;20447;-82
2023/02/24 01:29:38;;;;;;;255.63;245.47;;;5.50;99.90;;;;;;5059058;28;20447;-80
2023/02/24 01:32:05;;;;;;;295.13;283.97;;;5.50;99.90;;;;;;5059304;28;20480;-82
2023/02/24 01:34:33;;;;;;;295.53;284.17;;;5.50;99.90;;;;;;5058661;28;20479;-80
2023/02/24 01:37:01;;;;;;;286.73;274.30;;;5.40;99.90;;;;;;5059015;28;20898;-81
2023/02/24 01:39:27;;;;;;;254.17;244.67;;;5.40;99.90;;;;;;5058758;28;20458;-80
2023/02/24 01:41:54;;;;;;;279.60;267.57;;;5.40;99.90;;;;;;5058737;28;20447;-80
2023/02/24 01:45:04;;;;;;;292.70;280.37;;;5.40;99.90;;;;;;5058961;28;20486;-80
2023/02/24 01:47:31;;;;;;;232.60;222.53;;;5.40;99.90;;;;;;5043444;28;20490;-80
2023/02/24 01:50:01;;;;;;;233.43;224.27;;;5.40;99.90;;;;;;5058534;28;20462;-80
2023/02/24 01:52:33;;;;;;;245.13;234.47;;;5.40;99.90;;;;;;5057781;28;20570;-80
2023/02/24 01:55:08;;;;;;;293.47;282.27;;;5.40;99.90;;;;;;5058279;28;20485;-81
2023/02/24 01:57:38;;;;;;;260.47;250.07;;;5.40;99.90;;;;;;5058211;28;20545;-80
2023/02/24 02:00:29;;;;;;;238.03;228.33;;;5.30;99.90;;;;;;5059213;28;20874;-80
2023/02/24 02:02:59;;;;;;;220.17;211.30;;;5.30;99.90;;;;;;5058354;28;21075;-81
2023/02/24 02:05:27;;;;;;;214.07;205.97;;;5.30;99.90;;;;;;5057915;28;20451;-78
2023/02/24 02:07:56;;;;;;;214.30;205.67;;;5.20;99.90;;;;;;5058017;28;20455;-80
2023/02/24 02:10:25;;;;;;;192.83;185.83;;;5.20;99.90;;;;;;5058523;28;20494;-81
2023/02/24 02:12:52;;;;;;;196.30;189.03;;;5.20;99.90;;;;;;5058265;28;20862;-79
2023/02/24 02:15:19;;;;;;;179.73;173.20;;;5.10;99.90;;;;;;5057684;28;20509;-81
2023/02/24 02:17:57;;;;;;;182.63;176.00;;;5.10;99.90;;;;;;5058062;28;20451;-80
2023/02/24 02:20:54;;;;;;;179.87;172.93;;;5.00;99.90;;;;;;5058218;28;20880;-80
2023/02/24 02:24:05;;;;;;;190.60;183.30;;;5.00;99.90;;;;;;5057588;28;21063;-82
2023/02/24 02:27:11;;;;;;;171.30;164.10;;;5.00;99.90;;;;;;5058429;28;20447;-80
2023/02/24 02:29:58;;;;;;;162.90;156.30;;;5.00;99.90;;;;;;5057448;28;20455;-80
2023/02/24 02:33:06;;;;;;;169.77;162.50;;;5.00;99.90;;;;;;5057817;28;20517;-80
2023/02/24 02:35:37;;;;;;;165.77;159.60;;;5.00;99.90;;;;;;5053170;28;20462;-80
2023/02/24 02:38:13;;;;;;;165.90;159.87;;;5.00;99.90;;;;;;5058324;28;20474;-81
2023/02/24 02:40:44;;;;;;;173.07;166.07;;;4.90;99.90;;;;;;5057308;28;20455;-80
2023/02/24 02:43:18;;;;;;;191.83;183.90;;;4.90;99.90;;;;;;5057505;28;20480;-81
2023/02/24 02:45:49;;;;;;;205.27;195.13;;;4.90;99.90;;;;;;5057775;28;20501;-80
2023/02/24 02:48:20;;;;;;;196.70;188.07;;;4.90;99.90;;;;;;5058008;28;20461;-80
2023/02/24 02:50:51;;;;;;;203.27;195.27;;;4.90;99.90;;;;;;5057419;28;20463;-81
2023/02/24 02:53:24;;;;;;;213.60;204.27;;;4.80;99.90;;;;;;5057809;28;20506;-80
2023/02/24 02:55:56;;;;;;;216.27;207.13;;;4.80;99.90;;;;;;5057291;28;20460;-82
2023/02/24 02:58:30;;;;;;;201.60;193.13;;;4.80;99.90;;;;;;5057366;28;20454;-80
2023/02/24 03:01:01;;;;;;;209.57;202.17;;;4.80;99.90;;;;;;5057746;28;20486;-81
2023/02/24 03:03:32;;;;;;;205.27;197.23;;;4.80;99.90;;;;;;5057253;28;20565;-80
2023/02/24 03:06:04;;;;;;;205.47;196.87;;;4.80;99.90;;;;;;5057636;28;20455;-80
2023/02/24 03:08:36;;;;;;;195.90;187.40;;;4.80;99.90;;;;;;5056718;28;20451;-81
2023/02/24 03:11:04;;;;;;;203.33;194.80;;;4.80;99.90;;;;;;5056827;28;20458;-80
2023/02/24 03:13:37;;;;;;;220.17;211.77;;;4.80;99.90;;;;;;5057410;28;20483;-79
2023/02/24 03:16:05;;;;;;;247.87;236.97;;;4.80;99.90;;;;;;5057849;28;20950;-80
2023/02/24 03:18:35;;;;;;;256.00;244.47;;;4.80;99.90;;;;;;5057830;28;20511;-81
2023/02/24 03:21:07;;;;;;;255.90;244.17;;;4.80;99.90;;;;;;5057829;28;20458;-80
2023/02/24 03:23:37;;;;;;;246.13;234.90;;;4.80;99.90;;;;;;5057112;28;20472;-80
2023/02/24 03:26:17;;;;;;;231.60;221.30;;;4.80;99.90;;;;;;5056761;28;20546;-80
2023/02/24 03:28:52;;;;;;;249.53;239.27;;;4.80;99.90;;;;;;5056847;28;20451;-80
2023/02/24 03:31:26;;;;;;;264.43;253.40;;;4.70;99.90;;;;;;5056674;28;20459;-81
2023/02/24 03:34:02;;;;;;;301.53;288.53;;;4.70;99.90;;;;;;5057317;28;20479;-80
2023/02/24 03:36:30;;;;;;;301.87;289.57;;;4.70;99.90;;;;;;5057827;28;20472;-81
2023/02/24 03:39:00;;;;;;;312.23;298.37;;;4.70;99.90;;;;;;5056926;28;20522;-80
2023/02/24 03:41:30;;;;;;;308.97;295.30;;;4.60;99.90;;;;;;5057092;28;20451;-80
2023/02/24 03:43:58;;;;;;;339.20;324.40;;;4.60;99.90;;;;;;5056882;28;20471;-80
2023/02/24 03:46:25;;;;;;;405.50;388.47;;;4.50;99.90;;;;;;5057096;28;20452;-81
2023/02/24 03:48:59;;;;;;;472.50;451.13;;;4.50;99.90;;;;;;5056427;28;20484;-80
2023/02/24 03:51:26;;;;;;;478.77;458.20;;;4.50;99.90;;;;;;5056649;28;20451;-80
2023/02/24 03:54:07;;;;;;;485.77;464.77;;;4.40;99.90;;;;;;5056953;28;20483;-81
2023/02/24 03:56:45;;;;;;;493.03;471.67;;;4.40;99.90;;;;;;5056608;28;20456;-80
2023/02/24 03:59:22;;;;;;;488.83;468.03;;;4.40;99.90;;;;;;5057098;28;20458;-80
2023/02/24 04:01:56;;;;;;;519.10;495.33;;;4.40;99.90;;;;;;5057044;28;20895;-81
2023/02/24 04:04:29;;;;;;;526.03;500.30;;;4.40;99.90;;;;;;5056951;28;20566;-80
2023/02/24 04:07:00;;;;;;;527.87;503.50;;;4.40;99.90;;;;;;5056951;28;20923;-82
2023/02/24 04:09:35;;;;;;;507.90;484.80;;;4.40;99.90;;;;;;5056580;28;20456;-81
2023/02/24 04:12:09;;;;;;;475.43;453.23;;;4.40;99.90;;;;;;5056511;28;20836;-80
2023/02/24 04:14:43;;;;;;;415.63;395.40;;;4.40;99.90;;;;;;5056199;28;20475;-80
2023/02/24 04:17:18;;;;;;;390.80;374.27;;;4.40;99.90;;;;;;5056466;28;20455;-80
2023/02/24 04:19:47;;;;;;;339.03;325.03;;;4.30;99.90;;;;;;5056437;28;20832;-80
2023/02/24 04:22:18;;;;;;;341.90;326.50;;;4.30;99.90;;;;;;5055463;28;20873;-78
2023/02/24 04:24:50;;;;;;;309.43;296.60;;;4.30;99.90;;;;;;5056162;28;20458;-80
2023/02/24 04:27:18;;;;;;;307.53;295.43;;;4.30;99.90;;;;;;5056577;28;20459;-80
2023/02/24 04:29:51;;;;;;;307.17;293.37;;;4.20;99.90;;;;;;5056853;28;20458;-80
2023/02/24 04:32:21;;;;;;;307.63;294.67;;;4.20;99.90;;;;;;5056563;28;20467;-80
2023/02/24 04:34:49;;;;;;;278.20;267.13;;;4.20;99.90;;;;;;5056608;28;20513;-80
2023/02/24 04:37:17;;;;;;;271.03;260.50;;;4.20;99.90;;;;;;5055186;28;21037;-80
2023/02/24 04:39:50;;;;;;;275.23;263.13;;;4.10;99.90;;;;;;5056031;28;20517;-81
2023/02/24 04:42:21;;;;;;;303.67;291.47;;;4.10;99.90;;;;;;5056819;28;20455;-80
2023/02/24 04:44:47;;;;;;;299.00;286.73;;;4.00;99.90;;;;;;5056514;28;20451;-80
2023/02/24 04:47:14;;;;;;;321.43;307.60;;;3.90;99.90;;;;;;5055439;28;20501;-80
2023/02/24 04:49:43;;;;;;;352.80;339.00;;;3.80;99.90;;;;;;5055261;28;20824;-79
2023/02/24 04:52:10;;;;;;;379.00;364.27;;;3.70;99.90;;;;;;5054925;28;20550;-80
2023/02/24 04:54:37;;;;;;;439.77;422.43;;;3.60;99.90;;;;;;5055644;28;20874;-80
2023/02/24 04:57:06;;;;;;;508.50;487.83;;;3.60;99.90;;;;;;5055502;28;20458;-80
2023/02/24 04:59:34;;;;;;;562.20;538.50;;;3.40;99.90;;;;;;5055690;28;20454;-79
2023/02/24 05:02:01;;;;;;;594.47;568.60;;;3.50;99.90;;;;;;5058813;28;20451;-80
2023/02/24 05:04:30;;;;;;;595.53;567.17;;;3.50;99.90;;;;;;5059614;28;21013;-80
2023/02/24 05:06:57;;;;;;;644.93;613.07;;;3.50;99.90;;;;;;5059954;28;20455;-80
2023/02/24 05:09:28;;;;;;;668.77;633.57;;;3.50;99.90;;;;;;5058330;28;20462;-80
2023/02/24 05:11:57;;;;;;;661.70;626.97;;;3.60;99.90;;;;;;5058140;28;20459;-81
2023/02/24 05:14:26;;;;;;;655.77;620.97;;;3.60;99.90;;;;;;5058808;28;20485;-80
2023/02/24 05:16:58;;;;;;;651.77;618.17;;;3.60;99.90;;;;;;5058253;28;20480;-79
2023/02/24 05:22:10;;;;;;;657.57;622.73;;;3.60;99.90;;;;;;5057248;28;20510;-80
2023/02/24 05:24:37;;;;;;;664.20;630.23;;;3.60;99.90;;;;;;5056934;28;20471;-80
2023/02/24 05:27:04;;;;;;;669.60;634.17;;;3.50;99.90;;;;;;5057110;28;20459;-79
2023/02/24 05:29:35;;;;;;;677.57;641.97;;;3.40;99.90;;;;;;5055984;28;20448;-80
2023/02/24 05:32:04;;;;;;;692.97;654.13;;;3.40;99.90;;;;;;5058344;28;20961;-82
2023/02/24 05:34:32;;;;;;;701.23;662.37;;;3.40;99.90;;;;;;5057599;28;21047;-80
2023/02/24 05:37:02;;;;;;;705.40;666.57;;;3.40;99.90;;;;;;5056796;28;20452;-79
2023/02/24 05:39:29;;;;;;;705.47;664.37;;;3.40;99.90;;;;;;5057776;28;20518;-80
2023/02/24 05:41:56;;;;;;;710.93;668.53;;;3.50;99.90;;;;;;5057896;28;20451;-80
2023/02/24 05:44:25;;;;;;;702.40;660.43;;;3.50;99.90;;;;;;5058365;28;20483;-80
2023/02/24 05:46:57;;;;;;;703.00;661.73;;;3.50;99.90;;;;;;5056965;28;20487;-80
2023/02/24 05:49:28;;;;;;;691.13;651.07;;;3.50;99.90;;;;;;5059431;28;20463;-79
2023/02/24 05:51:56;;;;;;;689.73;650.63;;;3.50;99.90;;;;;;5058687;28;20977;-80
2023/02/24 05:54:28;;;;;;;686.27;647.07;;;3.40;99.90;;;;;;5057471;28;20476;-79
2023/02/24 05:56:56;;;;;;;687.50;646.80;;;3.40;99.90;;;;;;5059137;28;20460;-80
2023/02/24 05:59:24;;;;;;;683.43;645.47;;;3.40;99.90;;;;;;5060532;28;20456;-80
2023/02/24 06:01:52;;;;;;;689.83;650.83;;;3.40;99.90;;;;;;5060149;28;20887;-80
2023/02/24 06:04:38;;;;;;;691.90;653.73;;;3.30;99.90;;;;;;5058750;28;20471;-80
2023/02/24 06:07:06;;;;;;;673.87;636.47;;;3.40;99.90;;;;;;5056968;28;20459;-80
2023/02/24 06:09:35;;;;;;;664.03;628.13;;;3.30;99.90;;;;;;5059061;28;20460;-80
2023/02/24 06:12:02;;;;;;;664.63;627.30;;;3.30;99.90;;;;;;5059051;28;20856;-80
2023/02/24 06:14:29;;;;;;;652.47;618.47;;;3.20;99.90;;;;;;5060318;28;20909;-80
2023/02/24 06:16:55;;;;;;;644.70;610.70;;;3.20;99.90;;;;;;5058415;28;20455;-80
2023/02/24 06:19:24;;;;;;;646.83;612.40;;;3.10;99.90;;;;;;5057770;28;20973;-80
2023/02/24 06:21:51;;;;;;;650.27;616.60;;;3.10;99.90;;;;;;5058015;28;20455;-80
2023/02/24 06:24:18;;;;;;;654.73;620.17;;;3.10;99.90;;;;;;5058878;28;20669;-79
2023/02/24 06:26:45;;;;;;;666.30;631.50;;;3.10;99.90;;;;;;5059647;28;20451;-79
2023/02/24 06:29:14;;;;;;;660.03;624.87;;;3.20;99.90;;;;;;5059435;28;20451;-79
2023/02/24 06:31:41;;;;;;;655.70;618.87;;;3.30;99.90;;;;;;5058207;28;20447;-79
2023/02/24 06:34:09;;;;;;;637.13;603.17;;;3.40;99.90;;;;;;5057079;28;20479;-79
2023/02/24 06:36:37;;;;;;;611.90;580.00;;;3.40;99.90;;;;;;5056390;28;20528;-78
2023/02/24 06:39:06;;;;;;;581.20;550.73;;;3.50;99.90;;;;;;5057362;28;20478;-80
2023/02/24 06:41:34;;;;;;;549.13;522.03;;;3.60;99.90;;;;;;5058018;28;20506;-80
2023/02/24 06:44:00;;;;;;;512.93;488.03;;;3.60;99.90;;;;;;5056534;28;20478;-79
2023/02/24 06:46:28;;;;;;;475.50;453.90;;;3.60;99.90;;;;;;5058780;28;20451;-80
2023/02/24 06:48:55;;;;;;;426.53;407.43;;;3.70;99.90;;;;;;5059807;28;20451;-80
2023/02/24 06:51:22;;;;;;;369.63;351.27;;;3.80;99.90;;;;;;5056782;28;20956;-79
2023/02/24 06:53:51;;;;;;;326.10;311.03;;;3.90;99.90;;;;;;5055833;28;20875;-79
2023/02/24 06:56:18;;;;;;;287.13;273.53;;;4.00;99.90;;;;;;5055975;28;20452;-81
2023/02/24 06:58:47;;;;;;;267.83;255.27;;;4.10;99.90;;;;;;5054953;28;20459;-80
2023/02/24 07:01:16;;;;;;;242.40;230.30;;;4.20;99.90;;;;;;5055517;28;20470;-79
2023/02/24 07:04:01;;;;;;;229.40;218.10;;;4.20;99.90;;;;;;5056897;28;20482;-78
2023/02/24 07:06:29;;;;;;;213.10;202.23;;;4.30;99.90;;;;;;5056076;28;20455;-80
2023/02/24 07:08:59;;;;;;;170.50;161.53;;;4.40;99.90;;;;;;5057261;28;20451;-80
2023/02/24 07:11:27;;;;;;;169.83;161.63;;;4.40;99.90;;;;;;5055855;28;20457;-80
2023/02/24 07:13:56;;;;;;;155.00;146.70;;;4.50;99.90;;;;;;5055817;28;20494;-80
2023/02/24 07:16:24;;;;;;;148.67;141.83;;;4.40;99.90;;;;;;5056282;28;20458;-79
2023/02/24 07:18:55;;;;;;;144.23;136.23;;;4.50;99.90;;;;;;5056665;28;20485;-80
2023/02/24 07:21:23;;;;;;;151.47;143.23;;;4.60;99.90;;;;;;5056185;28;20452;-81
2023/02/24 07:23:55;;;;;;;145.47;139.00;;;4.60;99.90;;;;;;5055566;28;20468;-80
2023/02/24 07:26:25;;;;;;;134.47;128.07;;;4.60;99.90;;;;;;5056156;28;20701;-80
2023/02/24 07:28:53;;;;;;;110.07;104.17;;;4.70;99.90;;;;;;5054514;28;20466;-79
2023/02/24 07:31:22;;;;;;;85.33;79.93;;;4.70;99.90;;;;;;5055092;28;20908;-81
2023/02/24 07:33:52;;;;;;;73.90;70.03;;;4.70;99.90;;;;;;5055194;28;20475;-80
2023/02/24 07:36:22;;;;;;;74.10;70.20;;;4.80;99.90;;;;;;5055156;28;20459;-80
2023/02/24 07:38:52;;;;;;;53.67;50.10;;;4.80;99.90;;;;;;5055592;28;20539;-80
2023/02/24 07:41:21;;;;;;;35.83;33.13;;;4.80;99.90;;;;;;5056229;28;20501;-80
2023/02/24 07:43:50;;;;;;;33.10;30.53;;;4.90;99.90;;;;;;5055854;28;20558;-81
2023/02/24 07:46:19;;;;;;;46.60;23.60;;;4.80;99.90;;;;;;5056828;28;20837;-79
2023/02/24 07:48:46;;;;;;;28.47;25.47;;;4.90;99.90;;;;;;5056241;28;20459;-81
2023/02/24 07:51:15;;;;;;;35.10;28.00;;;5.00;99.90;;;;;;5055941;28;20451;-81
2023/02/24 07:53:43;;;;;;;33.77;31.13;;;5.00;99.90;;;;;;5055935;28;21001;-80
2023/02/24 07:56:13;;;;;;;31.60;26.10;;;5.00;99.90;;;;;;5055828;28;20454;-80
2023/02/24 07:58:41;;;;;;;27.87;25.03;;;5.00;99.90;;;;;;5056283;28;20489;-80
2023/02/24 08:01:16;;;;;;;30.33;21.40;;;5.10;99.90;;;;;;5056418;28;20454;-80
2023/02/24 08:03:43;;;;;;;31.13;20.83;;;5.10;99.90;;;;;;5056174;28;20470;-80
2023/02/24 08:06:15;;;;;;;30.23;20.00;;;5.20;99.90;;;;;;5054673;28;20451;-81
2023/02/24 08:08:57;;;;;;;30.00;18.60;;;5.30;99.90;;;;;;5055744;28;20455;-80
2023/02/24 08:11:26;;;;;;;24.30;15.63;;;5.30;99.90;;;;;;5056140;28;20452;-80
2023/02/24 08:13:54;;;;;;;12.83;9.00;;;5.40;99.90;;;;;;5056114;28;20479;-80
2023/02/24 08:16:22;;;;;;;18.17;8.90;;;5.30;99.90;;;;;;5057173;28;20447;-80
2023/02/24 08:18:49;;;;;;;30.47;9.13;;;5.40;99.90;;;;;;5057285;28;20447;-80
2023/02/24 08:21:18;;;;;;;19.50;7.60;;;5.40;99.90;;;;;;5057138;28;20455;-81
2023/02/24 08:23:46;;;;;;;14.63;6.60;;;5.40;99.90;;;;;;5056421;28;20467;-80
2023/02/24 08:26:13;;;;;;;21.83;5.40;;;5.50;99.90;;;;;;5056041;28;20451;-80
2023/02/24 08:28:40;;;;;;;15.80;5.03;;;5.50;99.90;;;;;;5055624;28;20456;-80
2023/02/24 08:31:07;;;;;;;20.37;4.93;;;5.50;99.90;;;;;;5056158;28;20964;-80
2023/02/24 08:33:36;;;;;;;21.50;3.83;;;5.60;99.90;;;;;;5055818;28;20558;-80
2023/02/24 08:36:03;;;;;;;11.67;4.33;;;5.50;99.90;;;;;;5060121;28;20481;-81
2023/02/24 08:38:40;;;;;;;16.83;4.20;;;5.50;99.90;;;;;;5059380;28;20976;-81
2023/02/24 08:41:12;;;;;;;13.03;4.00;;;5.50;99.90;;;;;;5059566;28;20567;-81
2023/02/24 08:43:45;;;;;;;13.80;3.77;;;5.50;99.90;;;;;;5060569;28;20509;-80
2023/02/24 08:46:17;;;;;;;22.60;3.73;;;5.60;99.90;;;;;;5061007;28;20510;-80
2023/02/24 08:48:48;;;;;;;11.13;3.63;;;5.50;99.90;;;;;;5060248;28;20458;-80
2023/02/24 08:51:20;;;;;;;15.07;3.77;;;5.70;99.90;;;;;;5060453;28;20462;-80
2023/02/24 08:53:51;;;;;;;16.83;4.37;;;5.70;99.90;;;;;;5059627;28;20531;-80
2023/02/24 08:56:23;;;;;;;10.00;4.10;;;5.80;99.90;;;;;;5059941;28;20513;-80
2023/02/24 08:58:55;;;;;;;11.17;4.23;;;6.00;99.90;;;;;;5060262;28;20459;-80
2023/02/24 09:01:25;;;;;;;21.03;3.97;;;6.10;99.90;;;;;;5060638;28;20451;-79
2023/02/24 09:03:55;;;;;;;10.87;3.73;;;6.10;99.90;;;;;;5059916;28;20482;-80
2023/02/24 09:06:25;;;;;;;12.23;3.70;;;6.20;99.90;;;;;;5060172;28;20451;-81
2023/02/24 09:11:42;;;;;;;26.43;4.87;;;6.20;99.90;;;;;;5059940;28;20432;-81
2023/02/24 09:14:15;;;;;;;14.73;4.40;;;6.20;99.90;;;;;;5059796;28;20487;-80
2023/02/24 09:17:00;;;;;;;15.77;5.13;;;6.20;99.90;;;;;;5059656;28;20934;-80
2023/02/24 09:25:17;;;;;;;14.00;5.03;;;6.00;99.90;;;;;;5058966;28;20447;-80
2023/02/24 09:27:46;;;;;;;11.13;4.90;;;6.20;99.90;;;;;;5059443;28;20458;-80
2023/02/24 09:30:34;;;;;;;16.70;5.13;;;6.30;99.90;;;;;;5059925;28;20201;-81
2023/02/24 09:33:05;;;;;;;18.40;5.37;;;6.30;99.90;;;;;;5060644;28;20471;-80
2023/02/24 09:35:35;;;;;;;22.43;5.93;;;6.30;99.90;;;;;;5060976;28;20479;-81
2023/02/24 09:38:04;;;;;;;13.03;5.10;;;6.40;99.90;;;;;;5061501;28;20546;-81
2023/02/24 09:40:39;;;;;;;17.63;5.57;;;6.40;99.90;;;;;;5062347;28;20521;-80
2023/02/24 09:43:16;;;;;;;12.63;4.83;;;6.40;99.90;;;;;;5060645;28;20502;-80
2023/02/24 09:46:00;;;;;;;15.80;5.60;;;6.40;99.90;;;;;;5060287;28;20455;-81
2023/02/24 09:48:42;;;;;;;15.40;4.90;;;6.60;99.90;;;;;;5061367;28;20459;-81
2023/02/24 09:51:20;;;;;;;31.63;6.10;;;6.60;99.90;;;;;;5061459;28;20969;-81
2023/02/24 09:53:52;;;;;;;9.13;5.03;;;6.80;99.90;;;;;;5060543;28;22358;-81
2023/02/24 09:56:28;;;;;;;13.23;5.60;;;6.70;99.90;;;;;;5060640;28;20451;-82
2023/02/24 09:59:09;;;;;;;8.73;5.17;;;6.50;99.90;;;;;;5060858;28;20451;-81
2023/02/24 10:02:00;;;;;;;16.50;5.30;;;6.50;99.90;;;;;;5060898;28;20485;-81
2023/02/24 10:04:47;;;;;;;11.17;5.10;;;6.60;99.90;;;;;;5061039;28;20471;-81
2023/02/24 10:07:18;;;;;;;19.27;6.23;;;6.50;99.90;;;;;;5060689;28;20834;-81
2023/02/24 10:09:50;;;;;;;13.90;4.60;;;6.40;99.90;;;;;;5061299;28;20443;-81
2023/02/24 10:12:22;;;;;;;14.50;6.07;;;6.40;99.90;;;;;;5061277;28;20547;-81
2023/02/24 10:14:52;;;;;;;23.23;7.07;;;6.40;99.90;;;;;;5060049;28;20480;-81
2023/02/24 10:17:24;;;;;;;9.80;5.60;;;6.50;99.90;;;;;;5060252;28;20447;-81
2023/02/24 10:19:58;;;;;;;15.17;6.23;;;6.50;99.90;;;;;;5060619;28;20558;-81
2023/02/24 10:22:38;;;;;;;12.77;4.67;;;6.40;99.90;;;;;;5060696;28;20462;-81
2023/02/24 10:25:22;;;;;;;13.57;5.97;;;6.30;99.90;;;;;;5060347;28;20451;-81
2023/02/24 10:27:58;;;;;;;13.25;7.53;;;6.20;99.90;;;;;;5058732;28;20477;-82
2023/02/24 10:30:40;;;;;;;22.03;6.73;;;6.10;99.90;;;;;;5059937;28;20200;-81
2023/02/24 10:33:24;;;;;;;17.63;5.83;;;6.10;99.90;;;;;;5060744;28;20467;-80
2023/02/24 10:35:53;;;;;;;15.53;6.40;;;6.10;99.90;;;;;;5060753;28;20476;-81
2023/02/24 10:38:21;;;;;;;24.10;7.20;;;6.00;99.90;;;;;;5061364;28;20460;-81
2023/02/24 10:40:55;;;;;;;13.70;5.80;;;6.00;99.90;;;;;;5061331;28;20451;-81
2023/02/24 10:43:28;;;;;;;12.57;7.40;;;6.00;99.90;;;;;;5060636;28;20507;-82
2023/02/24 10:46:04;;;;;;;15.37;5.70;;;6.10;99.90;;;;;;5060558;28;20443;-81
2023/02/24 10:48:37;;;;;;;12.27;5.97;;;6.00;99.90;;;;;;5061095;28;20458;-82
2023/02/24 10:51:18;;;;;;;23.23;6.63;;;5.90;99.90;;;;;;5061752;28;20500;-81
2023/02/24 12:25:03;;;;;;;21.30;5.00;;;5.00;99.90;;;;;;5347960;23;20484;-95
2023/02/24 14:18:58;;;;;;;26.63;12.80;;;5.20;99.90;;;;;;5572521;23;20505;-76
2023/02/24 16:52:57;;;;;;;203.20;195.40;;;5.70;99.90;;;;;;6109964;22;2269575;-89
2023/02/24 16:55:24;;;;;;;273.57;264.13;;;5.70;99.90;;;;;;6087195;23;20604;-90
2023/02/24 16:58:26;;;;;;;265.13;255.37;;;5.50;99.90;;;;;;5368321;23;11076581;-89
2023/02/24 17:01:01;;;;;;;213.73;206.43;;;5.60;99.90;;;;;;6077428;23;20229;-88
2023/02/24 17:03:31;;;;;;;250.90;242.43;;;5.60;99.90;;;;;;6140340;23;20493;-86
2023/02/24 17:05:59;;;;;;;310.17;298.93;;;5.60;99.90;;;;;;6137558;23;20479;-88
2023/02/24 17:11:08;;;;;;;347.73;335.93;;;5.50;99.90;;;;;;6131303;23;20403;-91
2023/02/24 17:13:38;;;;;;;347.83;335.23;;;5.70;99.90;;;;;;6112407;23;20506;-90
2023/02/24 17:16:06;;;;;;;350.73;338.93;;;5.70;99.90;;;;;;6110215;23;20484;-92
2023/02/24 17:18:36;;;;;;;399.90;386.30;;;5.70;99.90;;;;;;6111482;23;20418;-92
2023/02/24 17:21:08;;;;;;;431.13;416.07;;;5.70;99.90;;;;;;6113456;23;20455;-94
2023/02/24 17:23:35;;;;;;;438.93;422.57;;;5.60;99.90;;;;;;6110622;23;20432;-94
2023/02/24 17:26:13;;;;;;;462.17;444.67;;;5.70;99.90;;;;;;6113402;23;20471;-94
2023/02/24 17:28:49;;;;;;;493.53;474.53;;;5.90;99.90;;;;;;6115436;23;20415;-95
2023/02/24 17:31:17;;;;;;;518.77;498.67;;;5.70;99.90;;;;;;6114119;23;20415;-95
2023/02/24 17:33:53;;;;;;;586.77;561.27;;;5.70;99.90;;;;;;6116043;23;20420;-94
2023/02/24 17:36:20;;;;;;;597.87;573.40;;;5.50;99.90;;;;;;6096532;23;20431;-92
2023/02/24 17:39:12;;;;;;;630.80;603.17;;;5.50;99.90;;;;;;6075740;23;20491;-92
2023/02/24 17:41:46;;;;;;;560.63;538.63;;;5.50;99.90;;;;;;6101984;23;20432;-93
2023/02/24 17:44:13;;;;;;;607.83;581.23;;;5.40;99.90;;;;;;6098492;23;20445;-93
2023/02/24 17:46:40;;;;;;;587.23;561.93;;;5.40;99.90;;;;;;6112541;23;20798;-90
2023/02/24 17:49:12;;;;;;;570.27;546.27;;;5.30;99.90;;;;;;6115647;23;20422;-95
2023/02/24 17:51:40;;;;;;;528.17;507.17;;;5.20;99.90;;;;;;6107046;23;20443;-90
2023/02/24 17:54:09;;;;;;;571.37;547.27;;;5.20;99.90;;;;;;6107555;23;20419;-95
2023/02/24 17:56:36;;;;;;;559.50;536.50;;;5.20;99.90;;;;;;6108360;23;20419;-91
2023/02/24 17:59:10;;;;;;;601.47;574.80;;;5.20;99.90;;;;;;6109375;23;20955;-96
2023/02/24 18:01:37;;;;;;;587.63;561.60;;;5.20;99.90;;;;;;6110595;23;20491;-91
2023/02/24 18:04:24;;;;;;;561.57;536.10;;;5.50;99.90;;;;;;6108366;23;20442;-86
2023/02/24 18:09:55;;;;;;;519.30;497.40;;;5.50;99.90;;;;;;6095256;23;20427;-93
2023/02/24 18:12:49;;;;;;;519.93;498.33;;;5.50;99.90;;;;;;6107952;23;20515;-93
2023/02/24 18:15:21;;;;;;;501.50;480.53;;;5.60;99.90;;;;;;6055701;23;20946;-92
2023/02/24 18:17:50;;;;;;;541.37;517.20;;;5.70;99.90;;;;;;6108017;23;20416;-94
2023/02/24 18:20:19;;;;;;;506.50;485.90;;;5.70;99.90;;;;;;6112987;23;20435;-91
2023/02/24 18:25:50;;;;;;;498.27;479.73;;;5.60;99.90;;;;;;6121982;23;20484;-94
2023/02/24 18:28:29;;;;;;;;;;;;;;;;;;;;;
2023/02/24 18:31:34;;;;;;;469.73;451.97;;;5.60;99.90;;;;;;6166339;23;20429;-94
2023/02/24 18:34:01;;;;;;;453.67;436.30;;;5.60;99.90;;;;;;6139322;23;20414;-86
2023/02/24 18:36:36;;;;;;;463.50;445.93;;;5.50;99.90;;;;;;6139959;23;20427;-91
2023/02/24 18:39:07;;;;;;;435.57;420.03;;;5.40;99.90;;;;;;6138855;23;20418;-95
2023/02/24 18:41:36;;;;;;;450.40;433.27;;;5.40;99.90;;;;;;6148789;23;20406;-94
2023/02/24 18:44:07;;;;;;;442.10;426.23;;;5.50;99.90;;;;;;6142219;23;20425;-96
2023/02/24 18:46:35;;;;;;;445.80;429.07;;;5.50;99.90;;;;;;6142025;23;20442;-95
2023/02/24 18:49:07;;;;;;;537.10;513.07;;;5.60;99.90;;;;;;6141027;23;20419;-95
2023/02/24 18:51:40;;;;;;;469.03;450.63;;;5.60;99.90;;;;;;6132044;23;20419;-91
2023/02/24 18:54:08;;;;;;;507.80;486.97;;;5.60;99.90;;;;;;6146636;23;20420;-94
2023/02/24 18:56:39;;;;;;;453.93;434.57;;;5.60;99.90;;;;;;6137112;23;20777;-93
2023/02/24 18:59:06;;;;;;;566.20;538.37;;;5.40;99.90;;;;;;6134194;23;20418;-88
2023/02/24 19:01:41;;;;;;;599.10;564.87;;;5.40;99.90;;;;;;6134140;23;20422;-87
2023/02/24 19:04:08;;;;;;;604.57;569.57;;;5.20;99.90;;;;;;6134408;23;20418;-91
2023/02/24 19:06:36;;;;;;;478.60;457.30;;;5.10;99.90;;;;;;6133688;23;20423;-92